Time;durP1;ratioP1;P1;durP2;ratioP2;P2;SDS_P1;SDS_P2;PMS_P1;PMS_P2;Temp;Humidity;BMP_temperature;BMP_pressure;BME280_temperature;BME280_humidity;BME280_pressure;Samples;Min_cycle;Max_cycle;Signal;HPM_P1;HPM_P2
2023/08/06 00:00:30;;;;;;;5.53;3.50;;;16.20;99.90;;;;;;5065623;28;20564;-50
2023/08/06 00:02:56;;;;;;;6.27;4.10;;;16.20;99.90;;;;;;5072041;28;20918;-51
2023/08/06 00:05:23;;;;;;;5.10;3.70;;;16.20;99.90;;;;;;5071918;28;20524;-51
2023/08/06 00:07:50;;;;;;;9.90;4.40;;;16.20;99.90;;;;;;5065466;28;20493;-53
2023/08/06 00:10:17;;;;;;;7.23;4.47;;;16.20;99.90;;;;;;5067454;28;20579;-53
2023/08/06 00:12:45;;;;;;;6.10;3.67;;;16.20;99.90;;;;;;5072083;28;20473;-54
2023/08/06 00:15:12;;;;;;;7.47;3.90;;;16.20;99.90;;;;;;5070232;28;20508;-55
2023/08/06 00:17:39;;;;;;;5.37;3.93;;;16.10;99.90;;;;;;5071043;28;20570;-51
2023/08/06 00:20:07;;;;;;;6.70;4.00;;;16.20;99.90;;;;;;5072470;28;20464;-52
2023/08/06 00:22:34;;;;;;;16.70;3.97;;;16.10;99.90;;;;;;5072778;28;20441;-52
2023/08/06 00:25:01;;;;;;;6.37;3.73;;;16.10;99.90;;;;;;5063016;28;20473;-52
2023/08/06 00:27:27;;;;;;;8.37;4.27;;;16.10;99.90;;;;;;5067313;28;20878;-52
2023/08/06 00:29:55;;;;;;;7.63;4.00;;;16.10;99.90;;;;;;5067517;28;22498;-52
2023/08/06 00:32:22;;;;;;;6.37;3.97;;;16.10;99.90;;;;;;5069483;28;20465;-50
2023/08/06 00:34:50;;;;;;;7.40;4.70;;;16.10;99.90;;;;;;5070487;28;20959;-50
2023/08/06 00:37:17;;;;;;;6.50;4.60;;;16.10;99.90;;;;;;5071573;28;20481;-52
2023/08/06 00:39:43;;;;;;;6.33;4.10;;;16.10;99.90;;;;;;5071404;28;20488;-51
2023/08/06 00:42:10;;;;;;;5.30;4.10;;;16.00;99.90;;;;;;5061434;28;20450;-54
2023/08/06 00:44:37;;;;;;;4.77;3.80;;;16.00;99.90;;;;;;5071007;28;20476;-53
2023/08/06 00:47:06;;;;;;;6.33;4.27;;;16.10;99.90;;;;;;5069596;28;20515;-54
2023/08/06 00:49:33;;;;;;;7.70;4.10;;;16.00;99.90;;;;;;5069786;28;20523;-54
2023/08/06 00:52:00;;;;;;;9.10;4.57;;;16.10;99.90;;;;;;5072326;28;20437;-53
2023/08/06 00:54:28;;;;;;;4.37;3.97;;;16.00;99.90;;;;;;5071276;28;20473;-54
2023/08/06 00:56:54;;;;;;;6.10;4.60;;;16.00;99.90;;;;;;5069807;28;20554;-53
2023/08/06 00:59:21;;;;;;;7.90;4.43;;;16.00;99.90;;;;;;5068598;28;20493;-52
2023/08/06 01:01:49;;;;;;;11.90;4.97;;;16.00;99.90;;;;;;5069132;28;20510;-49
2023/08/06 01:04:17;;;;;;;5.13;4.00;;;16.00;99.90;;;;;;5067991;28;20467;-54
2023/08/06 01:06:48;;;;;;;5.57;4.40;;;16.00;99.90;;;;;;5069939;28;21014;-53
2023/08/06 01:09:36;;;;;;;9.73;4.10;;;15.90;99.90;;;;;;5065766;28;20538;-54
2023/08/06 01:12:10;;;;;;;5.83;4.57;;;15.90;99.90;;;;;;5065175;28;21194;-49
2023/08/06 01:14:46;;;;;;;16.13;5.40;;;15.90;99.90;;;;;;5063215;28;20457;-50
2023/08/06 01:17:13;;;;;;;10.73;4.83;;;15.90;99.90;;;;;;5064435;28;20500;-49
2023/08/06 01:19:41;;;;;;;13.43;5.37;;;15.90;99.90;;;;;;5061075;28;20537;-54
2023/08/06 01:22:09;;;;;;;5.07;4.53;;;15.90;99.90;;;;;;5069203;28;20817;-54
2023/08/06 01:24:36;;;;;;;8.97;4.67;;;15.90;99.90;;;;;;5069755;28;20934;-53
2023/08/06 01:27:07;;;;;;;7.43;4.33;;;15.90;99.90;;;;;;5071579;28;20925;-50
2023/08/06 01:29:39;;;;;;;10.97;4.60;;;15.90;99.90;;;;;;5069927;28;20513;-50
2023/08/06 01:32:09;;;;;;;9.03;4.73;;;15.90;99.90;;;;;;5062920;28;20497;-50
2023/08/06 01:34:36;;;;;;;6.30;5.30;;;15.90;99.90;;;;;;5067841;28;20521;-50
2023/08/06 01:37:04;;;;;;;8.97;5.43;;;15.90;99.90;;;;;;5071649;28;20897;-49
2023/08/06 01:39:34;;;;;;;6.17;4.43;;;15.90;99.90;;;;;;5068192;28;20488;-51
2023/08/06 01:42:00;;;;;;;5.40;4.70;;;15.90;99.90;;;;;;5062953;28;20540;-50
2023/08/06 01:44:27;;;;;;;8.00;4.93;;;15.90;99.90;;;;;;5059760;28;20544;-50
2023/08/06 01:46:54;;;;;;;7.33;5.40;;;15.90;99.90;;;;;;5067041;28;20512;-50
2023/08/06 01:49:20;;;;;;;9.87;5.20;;;15.90;99.90;;;;;;5068548;28;20576;-50
2023/08/06 01:51:47;;;;;;;14.23;5.50;;;15.90;99.90;;;;;;5068547;28;20564;-50
2023/08/06 01:54:13;;;;;;;5.87;5.27;;;15.90;99.90;;;;;;5067670;28;20561;-50
2023/08/06 01:56:41;;;;;;;8.27;5.80;;;15.90;99.90;;;;;;5064378;28;20585;-51
2023/08/06 01:59:07;;;;;;;7.50;6.20;;;15.90;99.90;;;;;;5066571;28;20484;-50
2023/08/06 02:01:34;;;;;;;8.60;6.20;;;15.90;99.90;;;;;;5068004;28;20556;-50
2023/08/06 02:04:00;;;;;;;6.43;5.43;;;16.00;99.90;;;;;;5059021;28;20545;-51
2023/08/06 02:06:27;;;;;;;6.70;5.63;;;15.90;99.90;;;;;;5066211;28;20481;-50
2023/08/06 02:08:53;;;;;;;13.20;6.03;;;15.90;99.90;;;;;;5068943;28;20541;-50
2023/08/06 02:11:20;;;;;;;5.97;5.13;;;15.90;99.90;;;;;;5071208;28;20886;-50
2023/08/06 02:13:48;;;;;;;8.03;5.50;;;15.90;99.90;;;;;;5063785;28;20544;-50
2023/08/06 02:16:14;;;;;;;8.10;5.27;;;15.90;99.90;;;;;;5065787;28;20560;-49
2023/08/06 02:18:41;;;;;;;5.57;5.07;;;15.90;99.90;;;;;;5067109;28;20547;-50
2023/08/06 02:21:07;;;;;;;7.10;5.40;;;15.90;99.90;;;;;;5067423;28;21812;-50
2023/08/06 02:23:34;;;;;;;10.53;6.33;;;15.90;99.90;;;;;;5060413;28;20500;-51
2023/08/06 02:26:01;;;;;;;8.93;6.10;;;15.90;99.90;;;;;;5065984;28;20481;-51
2023/08/06 02:28:28;;;;;;;9.27;6.50;;;15.90;99.90;;;;;;5066364;28;20490;-50
2023/08/06 02:30:56;;;;;;;6.20;5.60;;;15.90;99.90;;;;;;5069415;28;20563;-51
2023/08/06 02:33:22;;;;;;;9.63;5.33;;;15.90;99.90;;;;;;5073220;28;20555;-49
2023/08/06 02:35:49;;;;;;;10.33;6.23;;;15.90;99.90;;;;;;5069055;28;20556;-50
2023/08/06 02:38:16;;;;;;;10.23;6.10;;;15.90;99.90;;;;;;5066825;28;20935;-51
2023/08/06 02:40:46;;;;;;;6.07;5.47;;;15.90;99.90;;;;;;5072536;28;20536;-51
2023/08/06 02:43:12;;;;;;;7.83;6.33;;;15.90;99.90;;;;;;5072026;28;20471;-51
2023/08/06 02:45:39;;;;;;;6.80;6.10;;;15.90;99.90;;;;;;5064616;28;20491;-50
2023/08/06 02:48:07;;;;;;;6.67;6.03;;;15.90;99.90;;;;;;5069010;28;20509;-50
2023/08/06 02:50:40;;;;;;;8.00;6.80;;;15.90;99.90;;;;;;5071006;28;21080;-50
2023/08/06 02:53:06;;;;;;;9.30;5.37;;;15.90;99.90;;;;;;5067349;28;20982;-51
2023/08/06 02:55:33;;;;;;;8.87;6.10;;;15.90;99.90;;;;;;5071831;28;20484;-51
2023/08/06 02:58:00;;;;;;;6.60;6.00;;;15.90;99.90;;;;;;5068695;28;20481;-53
2023/08/06 03:00:27;;;;;;;13.00;5.80;;;15.90;99.90;;;;;;5070416;28;20962;-53
2023/08/06 03:02:54;;;;;;;7.73;5.53;;;15.90;99.90;;;;;;5071518;28;20530;-54
2023/08/06 03:05:21;;;;;;;7.17;6.10;;;15.90;99.90;;;;;;5073380;28;21017;-53
2023/08/06 03:07:48;;;;;;;10.00;6.30;;;15.90;99.90;;;;;;5070493;28;20546;-53
2023/08/06 03:10:14;;;;;;;7.13;6.17;;;15.90;99.90;;;;;;5072071;28;20918;-54
2023/08/06 03:12:41;;;;;;;7.00;6.30;;;15.90;99.90;;;;;;5068204;28;20877;-54
2023/08/06 03:15:09;;;;;;;7.27;6.57;;;15.80;99.90;;;;;;5065213;28;20888;-54
2023/08/06 03:17:35;;;;;;;8.23;6.20;;;15.90;99.90;;;;;;5071421;28;20516;-54
2023/08/06 03:20:02;;;;;;;8.37;6.50;;;15.90;99.90;;;;;;5073447;28;20998;-53
2023/08/06 03:22:30;;;;;;;6.80;6.20;;;15.90;99.90;;;;;;5073102;28;20497;-53
2023/08/06 03:24:56;;;;;;;6.63;6.03;;;15.90;99.90;;;;;;5073053;28;20520;-54
2023/08/06 03:27:23;;;;;;;7.10;6.40;;;15.80;99.90;;;;;;5073596;28;20904;-53
2023/08/06 03:29:50;;;;;;;8.20;6.47;;;15.90;99.90;;;;;;5070523;28;20524;-53
2023/08/06 03:32:16;;;;;;;7.00;6.30;;;15.80;99.90;;;;;;5064441;28;20542;-54
2023/08/06 03:34:43;;;;;;;8.33;6.93;;;15.80;99.90;;;;;;5065450;28;20492;-53
2023/08/06 03:37:09;;;;;;;7.43;6.70;;;15.80;99.90;;;;;;5069884;28;20595;-54
2023/08/06 03:39:37;;;;;;;7.23;6.53;;;15.80;99.90;;;;;;5073056;28;20476;-53
2023/08/06 03:42:04;;;;;;;9.93;6.80;;;15.80;99.90;;;;;;5069705;28;20477;-53
2023/08/06 03:44:31;;;;;;;10.00;7.73;;;15.80;99.90;;;;;;5068916;28;20484;-53
2023/08/06 03:46:57;;;;;;;8.60;7.57;;;15.80;99.90;;;;;;5073319;28;20556;-53
2023/08/06 03:49:24;;;;;;;8.40;7.20;;;15.90;99.90;;;;;;5069306;28;20907;-54
2023/08/06 03:51:50;;;;;;;8.67;6.30;;;15.90;99.90;;;;;;5062881;28;20501;-54
2023/08/06 03:54:17;;;;;;;8.87;7.37;;;15.80;99.90;;;;;;5062593;28;20521;-55
2023/08/06 03:56:44;;;;;;;8.33;7.53;;;15.90;99.90;;;;;;5065108;28;20488;-53
2023/08/06 03:59:11;;;;;;;9.20;6.40;;;15.80;99.90;;;;;;5068383;28;20899;-54
2023/08/06 04:01:38;;;;;;;7.90;7.13;;;15.90;99.90;;;;;;5064473;28;20881;-54
2023/08/06 04:04:04;;;;;;;7.53;6.93;;;15.90;99.90;;;;;;5063189;28;20552;-54
2023/08/06 04:06:31;;;;;;;8.63;7.10;;;15.90;99.90;;;;;;5066600;28;20567;-53
2023/08/06 04:08:57;;;;;;;8.27;7.40;;;15.80;99.90;;;;;;5071433;28;20560;-54
2023/08/06 04:11:24;;;;;;;8.67;7.97;;;15.90;99.90;;;;;;5065828;28;20579;-56
2023/08/06 04:13:51;;;;;;;9.10;6.70;;;15.80;99.90;;;;;;5064901;28;20908;-55
2023/08/06 04:16:18;;;;;;;7.73;7.07;;;15.80;99.90;;;;;;5066898;28;20543;-53
2023/08/06 04:18:45;;;;;;;9.03;7.40;;;15.80;99.90;;;;;;5061956;28;20540;-54
2023/08/06 04:21:12;;;;;;;8.00;7.30;;;15.80;99.90;;;;;;5065835;28;20822;-54
2023/08/06 04:23:38;;;;;;;7.37;6.63;;;15.80;99.90;;;;;;5067174;28;21032;-53
2023/08/06 04:26:05;;;;;;;9.17;6.80;;;15.80;99.90;;;;;;5068268;28;20556;-54
2023/08/06 04:28:31;;;;;;;8.57;7.67;;;15.80;99.90;;;;;;5070508;28;20567;-53
2023/08/06 04:31:00;;;;;;;7.90;7.20;;;15.80;99.90;;;;;;5070572;28;20567;-53
2023/08/06 04:33:26;;;;;;;9.13;7.87;;;15.80;99.90;;;;;;5066717;28;20492;-55
2023/08/06 04:35:55;;;;;;;9.00;7.23;;;15.80;99.90;;;;;;5066726;28;20969;-53
2023/08/06 04:38:23;;;;;;;8.70;7.80;;;15.80;99.90;;;;;;5072297;28;20463;-54
2023/08/06 04:40:50;;;;;;;9.07;7.10;;;15.80;99.90;;;;;;5070446;28;20544;-54
2023/08/06 04:43:16;;;;;;;10.73;7.13;;;15.80;99.90;;;;;;5068921;28;20551;-53
2023/08/06 04:45:47;;;;;;;8.20;7.30;;;15.80;99.90;;;;;;5066719;28;20520;-56
2023/08/06 04:48:15;;;;;;;9.00;8.20;;;15.80;99.90;;;;;;5066874;28;20473;-54
2023/08/06 04:50:44;;;;;;;8.70;7.90;;;15.80;99.90;;;;;;5060139;28;21028;-54
2023/08/06 04:53:11;;;;;;;8.50;7.70;;;15.90;99.90;;;;;;5070735;28;20543;-54
2023/08/06 04:55:38;;;;;;;8.50;7.80;;;15.90;99.90;;;;;;5070553;28;20489;-53
2023/08/06 04:58:04;;;;;;;8.97;8.17;;;15.90;99.90;;;;;;5067388;28;20519;-54
2023/08/06 05:00:31;;;;;;;8.43;7.63;;;15.90;99.90;;;;;;5070232;28;20488;-53
2023/08/06 05:03:00;;;;;;;8.50;7.70;;;15.90;99.90;;;;;;5069960;28;20544;-54
2023/08/06 05:05:28;;;;;;;9.60;8.60;;;15.90;99.90;;;;;;5071276;28;20520;-53
2023/08/06 05:07:56;;;;;;;8.80;8.00;;;15.90;99.90;;;;;;5071813;28;20488;-53
2023/08/06 05:10:24;;;;;;;9.13;7.90;;;15.90;99.90;;;;;;5071959;28;20579;-54
2023/08/06 05:12:51;;;;;;;11.70;8.63;;;15.90;99.90;;;;;;5072090;28;20524;-53
2023/08/06 05:15:18;;;;;;;8.97;8.20;;;15.90;99.90;;;;;;5069227;28;21050;-54
2023/08/06 05:17:44;;;;;;;9.57;8.60;;;15.90;99.90;;;;;;5065728;28;20568;-54
2023/08/06 05:20:12;;;;;;;9.03;8.23;;;15.90;99.90;;;;;;5067620;28;20461;-54
2023/08/06 05:22:40;;;;;;;9.57;8.77;;;16.00;99.90;;;;;;5071949;28;20520;-54
2023/08/06 05:25:07;;;;;;;9.67;8.77;;;15.90;99.90;;;;;;5070978;28;20524;-53
2023/08/06 05:27:33;;;;;;;9.27;8.00;;;15.90;99.90;;;;;;5070721;28;20476;-54
2023/08/06 05:30:00;;;;;;;13.20;9.10;;;16.00;99.90;;;;;;5067078;28;21038;-54
2023/08/06 05:32:26;;;;;;;9.50;8.50;;;16.00;99.90;;;;;;5063610;28;20551;-53
2023/08/06 05:34:53;;;;;;;10.10;9.03;;;16.00;99.90;;;;;;5070856;28;20472;-54
2023/08/06 05:37:19;;;;;;;11.23;8.90;;;16.00;99.90;;;;;;5064861;28;20487;-53
2023/08/06 05:39:47;;;;;;;9.00;8.10;;;16.00;99.90;;;;;;5071536;28;20517;-54
2023/08/06 05:42:14;;;;;;;10.03;9.10;;;16.10;99.90;;;;;;5069554;28;20489;-54
2023/08/06 05:44:41;;;;;;;10.20;9.30;;;16.00;99.90;;;;;;5069687;28;20969;-54
2023/08/06 05:47:07;;;;;;;12.50;9.53;;;16.10;99.90;;;;;;5065297;28;20596;-53
2023/08/06 05:49:34;;;;;;;11.33;9.23;;;16.10;99.90;;;;;;5067515;28;21033;-53
2023/08/06 05:52:00;;;;;;;14.43;10.33;;;16.10;99.90;;;;;;5071454;28;20569;-55
2023/08/06 05:54:27;;;;;;;15.50;9.50;;;16.10;99.90;;;;;;5070772;28;20524;-53
2023/08/06 05:56:54;;;;;;;12.80;9.73;;;16.10;99.90;;;;;;5071121;28;20473;-53
2023/08/06 05:59:21;;;;;;;12.67;10.57;;;16.10;99.90;;;;;;5067033;28;20981;-54
2023/08/06 06:01:47;;;;;;;11.30;10.30;;;16.10;99.90;;;;;;5066916;28;20544;-53
2023/08/06 06:04:14;;;;;;;11.00;9.90;;;16.10;99.90;;;;;;5068486;28;20543;-53
2023/08/06 06:06:41;;;;;;;11.47;10.40;;;16.10;99.90;;;;;;5070313;28;20921;-53
2023/08/06 06:09:08;;;;;;;11.33;10.13;;;16.10;99.90;;;;;;5072730;28;20457;-54
2023/08/06 06:11:34;;;;;;;12.10;9.30;;;16.10;99.90;;;;;;5074991;28;20560;-55
2023/08/06 06:14:02;;;;;;;12.63;9.70;;;16.10;99.90;;;;;;5071126;28;20981;-56
2023/08/06 06:16:29;;;;;;;10.07;9.17;;;16.10;99.90;;;;;;5072409;28;20563;-54
2023/08/06 06:18:57;;;;;;;10.80;9.90;;;16.10;99.90;;;;;;5073453;28;20575;-54
2023/08/06 06:21:23;;;;;;;12.20;9.37;;;16.20;99.90;;;;;;5072098;28;20446;-54
2023/08/06 06:23:51;;;;;;;10.60;9.60;;;16.20;99.90;;;;;;5072492;28;21000;-54
2023/08/06 06:26:17;;;;;;;11.70;9.93;;;16.20;99.90;;;;;;5075069;28;20453;-55
2023/08/06 06:28:44;;;;;;;11.10;9.80;;;16.30;99.90;;;;;;5073871;28;20543;-53
2023/08/06 06:31:12;;;;;;;10.63;9.60;;;16.30;99.90;;;;;;5063042;28;20580;-54
2023/08/06 06:33:38;;;;;;;10.20;9.10;;;16.30;99.90;;;;;;5084305;28;20440;-54
2023/08/06 06:36:07;;;;;;;10.30;9.40;;;16.30;99.90;;;;;;5069704;28;20966;-54
2023/08/06 06:38:33;;;;;;;10.10;9.20;;;16.30;99.90;;;;;;5068914;28;20870;-54
2023/08/06 06:41:00;;;;;;;9.60;8.80;;;16.30;99.90;;;;;;5065573;28;20551;-53
2023/08/06 06:43:27;;;;;;;9.73;8.73;;;16.30;99.90;;;;;;5071697;28;20488;-53
2023/08/06 06:45:54;;;;;;;10.23;9.33;;;16.40;99.90;;;;;;5074296;28;20524;-54
2023/08/06 06:48:22;;;;;;;10.83;9.43;;;16.40;99.90;;;;;;5074569;28;20461;-55
2023/08/06 06:50:49;;;;;;;10.20;8.90;;;16.40;99.90;;;;;;5069161;28;20575;-54
2023/08/06 06:53:16;;;;;;;13.30;9.30;;;16.40;99.90;;;;;;5072230;28;20504;-54
2023/08/06 06:55:42;;;;;;;9.40;8.60;;;16.50;99.90;;;;;;5064606;28;20496;-54
2023/08/06 06:58:09;;;;;;;9.87;8.93;;;16.50;99.90;;;;;;5064198;28;20901;-54
2023/08/06 07:00:36;;;;;;;12.20;9.37;;;16.50;99.90;;;;;;5070462;28;20481;-53
2023/08/06 07:03:03;;;;;;;9.60;8.33;;;16.50;99.90;;;;;;5074291;28;20473;-54
2023/08/06 07:05:31;;;;;;;8.63;7.93;;;16.50;99.90;;;;;;5067185;28;21055;-53
2023/08/06 07:07:57;;;;;;;8.40;7.57;;;16.50;99.90;;;;;;5072263;28;20516;-53
2023/08/06 07:10:24;;;;;;;8.87;8.00;;;16.50;99.90;;;;;;5069630;28;20551;-55
2023/08/06 07:12:51;;;;;;;9.07;8.20;;;16.50;99.90;;;;;;5070886;28;20484;-54
2023/08/06 07:15:17;;;;;;;9.17;8.33;;;16.50;99.90;;;;;;5071447;28;20528;-53
2023/08/06 07:17:44;;;;;;;7.70;7.10;;;16.60;99.90;;;;;;5073859;28;20962;-53
2023/08/06 07:20:11;;;;;;;8.40;7.60;;;16.60;99.90;;;;;;5071759;28;21025;-53
2023/08/06 07:22:39;;;;;;;7.97;7.20;;;16.60;99.90;;;;;;5073143;28;20510;-53
2023/08/06 07:25:06;;;;;;;8.10;7.40;;;16.60;99.90;;;;;;5071566;28;20876;-55
2023/08/06 07:27:33;;;;;;;7.83;6.97;;;16.50;99.90;;;;;;5069546;28;20476;-54
2023/08/06 07:30:00;;;;;;;9.00;8.10;;;16.50;99.90;;;;;;5066963;28;20467;-54
2023/08/06 07:32:27;;;;;;;11.23;7.93;;;16.60;99.90;;;;;;5072328;28;20488;-55
2023/08/06 07:34:59;;;;;;;8.70;7.90;;;16.70;99.90;;;;;;5072487;28;20485;-53
2023/08/06 07:37:28;;;;;;;10.70;8.23;;;16.70;99.90;;;;;;5073914;28;20842;-53
2023/08/06 07:39:55;;;;;;;9.23;8.23;;;16.70;99.90;;;;;;5069888;28;20450;-55
2023/08/06 07:42:22;;;;;;;10.23;8.10;;;16.70;99.90;;;;;;5056750;28;20460;-54
2023/08/06 07:44:52;;;;;;;8.90;8.00;;;16.70;99.90;;;;;;5066735;28;20544;-54
2023/08/06 07:47:19;;;;;;;9.80;8.90;;;16.70;99.90;;;;;;5067730;28;20476;-54
2023/08/06 07:49:45;;;;;;;9.10;8.17;;;16.80;99.90;;;;;;5072377;28;20510;-54
2023/08/06 07:52:12;;;;;;;11.43;9.33;;;16.80;99.90;;;;;;5073209;28;20572;-54
2023/08/06 07:54:38;;;;;;;9.03;8.13;;;16.80;99.90;;;;;;5071555;28;20484;-54
2023/08/06 07:57:07;;;;;;;8.90;8.20;;;16.80;99.90;;;;;;5070775;28;20937;-53
2023/08/06 07:59:34;;;;;;;10.40;9.40;;;16.90;99.90;;;;;;5066834;28;20452;-53
2023/08/06 08:02:01;;;;;;;10.70;9.80;;;16.80;99.90;;;;;;5067174;28;20452;-54
2023/08/06 08:04:27;;;;;;;12.60;9.43;;;16.80;99.90;;;;;;5070187;28;20528;-54
2023/08/06 08:06:54;;;;;;;10.50;9.40;;;16.90;99.90;;;;;;5067894;28;21001;-53
2023/08/06 08:09:20;;;;;;;17.13;10.90;;;16.90;99.90;;;;;;5065217;28;20549;-54
2023/08/06 08:11:47;;;;;;;10.60;9.60;;;16.90;99.90;;;;;;5054078;28;20495;-55
2023/08/06 08:14:15;;;;;;;11.13;10.13;;;16.90;99.90;;;;;;5068965;28;20479;-54
2023/08/06 08:16:42;;;;;;;10.60;9.60;;;16.90;99.90;;;;;;5068647;28;20580;-53
2023/08/06 08:19:08;;;;;;;10.90;9.90;;;16.90;99.90;;;;;;5070308;28;20536;-53
2023/08/06 08:21:35;;;;;;;10.90;9.87;;;17.00;99.90;;;;;;5069838;28;20539;-54
2023/08/06 08:24:02;;;;;;;11.57;10.30;;;17.00;99.90;;;;;;5067338;28;20568;-53
2023/08/06 08:26:28;;;;;;;10.13;9.20;;;17.00;99.90;;;;;;5068543;28;20537;-54
2023/08/06 08:28:55;;;;;;;10.20;9.40;;;16.90;99.90;;;;;;5069793;28;20461;-54
2023/08/06 08:31:23;;;;;;;11.60;10.57;;;16.90;99.90;;;;;;5064611;28;20915;-53
2023/08/06 08:33:49;;;;;;;10.40;9.40;;;17.00;99.90;;;;;;5066043;28;20501;-54
2023/08/06 08:36:16;;;;;;;10.47;9.57;;;17.00;99.90;;;;;;5060144;28;20549;-54
2023/08/06 08:38:42;;;;;;;10.07;9.27;;;17.00;99.90;;;;;;5069681;28;20572;-53
2023/08/06 08:41:11;;;;;;;9.63;8.83;;;17.00;99.90;;;;;;5066327;28;20893;-53
2023/08/06 08:43:38;;;;;;;10.10;9.20;;;17.00;99.90;;;;;;5067283;28;20511;-54
2023/08/06 08:46:06;;;;;;;10.20;9.40;;;17.00;99.90;;;;;;5065435;28;20553;-54
2023/08/06 08:48:34;;;;;;;9.90;8.73;;;17.00;99.90;;;;;;5068699;28;20540;-53
2023/08/06 08:51:01;;;;;;;10.97;9.90;;;17.00;99.90;;;;;;5065768;28;20503;-53
2023/08/06 08:53:29;;;;;;;10.90;10.00;;;17.10;99.90;;;;;;5069249;28;20543;-53
2023/08/06 08:55:56;;;;;;;10.27;9.33;;;17.10;99.90;;;;;;5070983;28;20528;-54
2023/08/06 08:58:23;;;;;;;10.00;9.00;;;17.10;99.90;;;;;;5068970;28;20488;-55
2023/08/06 09:00:50;;;;;;;10.20;9.10;;;17.10;99.90;;;;;;5064474;28;21049;-53
2023/08/06 09:03:17;;;;;;;12.13;10.37;;;17.20;99.90;;;;;;5065834;28;20457;-52
2023/08/06 09:05:48;;;;;;;10.70;9.60;;;17.20;99.90;;;;;;5064941;28;20485;-54
2023/08/06 09:08:19;;;;;;;10.20;9.40;;;17.20;99.90;;;;;;5066310;28;20833;-50
2023/08/06 09:10:50;;;;;;;11.10;10.00;;;17.20;99.90;;;;;;5067512;28;20472;-50
2023/08/06 09:13:17;;;;;;;10.93;10.00;;;17.20;99.90;;;;;;5067939;28;20468;-50
2023/08/06 09:15:44;;;;;;;10.70;9.60;;;17.20;99.90;;;;;;5066973;28;20457;-49
2023/08/06 09:18:12;;;;;;;11.77;10.63;;;17.30;99.90;;;;;;5068572;28;20549;-51
2023/08/06 09:20:39;;;;;;;10.93;9.83;;;17.30;99.90;;;;;;5068281;28;20544;-50
2023/08/06 09:23:10;;;;;;;12.20;10.00;;;17.30;99.90;;;;;;5064136;28;20541;-50
2023/08/06 09:25:39;;;;;;;11.43;10.10;;;17.30;99.90;;;;;;5058844;28;20551;-49
2023/08/06 09:28:05;;;;;;;11.80;10.60;;;17.40;99.90;;;;;;5059707;28;20481;-50
2023/08/06 09:30:34;;;;;;;15.90;11.90;;;17.30;99.90;;;;;;5069310;28;20522;-50
2023/08/06 09:33:01;;;;;;;11.90;10.70;;;17.30;99.90;;;;;;5063007;28;21049;-49
2023/08/06 09:35:29;;;;;;;11.27;10.20;;;17.40;99.90;;;;;;5062500;28;21189;-50
2023/08/06 09:37:56;;;;;;;11.47;10.37;;;17.40;99.90;;;;;;5062796;28;20530;-50
2023/08/06 09:40:29;;;;;;;12.57;11.37;;;17.40;99.90;;;;;;5068382;28;20453;-53
2023/08/06 09:42:55;;;;;;;12.80;11.60;;;17.40;99.90;;;;;;5070770;28;20550;-50
2023/08/06 09:45:23;;;;;;;13.13;11.93;;;17.40;99.90;;;;;;5068849;28;20514;-50
2023/08/06 09:47:50;;;;;;;12.97;11.70;;;17.50;99.90;;;;;;5065858;28;20581;-50
2023/08/06 09:50:18;;;;;;;15.60;11.50;;;17.50;99.90;;;;;;5065489;28;20466;-50
2023/08/06 09:52:44;;;;;;;14.77;12.30;;;17.50;99.90;;;;;;5065380;28;20477;-49
2023/08/06 09:55:12;;;;;;;14.37;12.77;;;17.50;99.90;;;;;;5067640;28;20778;-50
2023/08/06 09:57:41;;;;;;;13.43;12.23;;;17.60;99.90;;;;;;5068757;28;21223;-51
2023/08/06 10:00:09;;;;;;;12.93;11.73;;;17.60;99.90;;;;;;5065471;28;20465;-49
2023/08/06 10:02:38;;;;;;;13.40;12.10;;;17.70;99.90;;;;;;5062485;28;20500;-51
2023/08/06 10:05:05;;;;;;;12.50;11.20;;;17.70;99.90;;;;;;5060817;28;20571;-51
2023/08/06 10:07:32;;;;;;;12.17;11.07;;;17.60;99.90;;;;;;5066149;28;20472;-53
2023/08/06 10:09:59;;;;;;;11.60;10.60;;;17.60;99.90;;;;;;5065120;28;20461;-50
2023/08/06 10:12:27;;;;;;;13.13;11.97;;;17.60;99.90;;;;;;5059739;28;21121;-52
2023/08/06 10:14:58;;;;;;;13.60;10.80;;;17.60;99.90;;;;;;5067260;28;21022;-51
2023/08/06 10:17:25;;;;;;;11.67;10.67;;;17.60;99.90;;;;;;5062379;28;20622;-51
2023/08/06 10:19:54;;;;;;;12.27;11.00;;;17.60;99.90;;;;;;5060616;28;20556;-51
2023/08/06 10:22:21;;;;;;;13.67;12.27;;;17.60;99.90;;;;;;5062588;28;20459;-52
2023/08/06 10:24:52;;;;;;;13.50;12.13;;;17.50;99.90;;;;;;5066308;28;20464;-51
2023/08/06 10:27:31;;;;;;;14.13;12.73;;;17.60;99.90;;;;;;5066823;28;20556;-51
2023/08/06 10:30:22;;;;;;;11.07;9.97;;;17.60;99.90;;;;;;5065627;28;20463;-52
2023/08/06 10:32:50;;;;;;;12.63;11.30;;;17.50;99.90;;;;;;5061349;28;20542;-51
2023/08/06 10:35:30;;;;;;;11.80;10.80;;;17.50;99.90;;;;;;5062509;28;20457;-52
2023/08/06 10:38:00;;;;;;;11.47;10.10;;;17.50;99.90;;;;;;5065145;28;20473;-52
2023/08/06 10:40:26;;;;;;;9.47;8.77;;;17.50;99.90;;;;;;5067212;28;20472;-52
2023/08/06 10:42:53;;;;;;;11.50;9.00;;;17.50;99.90;;;;;;5061327;28;20959;-51
2023/08/06 10:45:24;;;;;;;10.00;9.10;;;17.50;99.90;;;;;;5064124;28;20576;-50
2023/08/06 10:47:50;;;;;;;9.03;8.23;;;17.50;99.90;;;;;;5063745;28;20918;-54
2023/08/06 10:50:18;;;;;;;10.20;9.20;;;17.60;99.90;;;;;;5067881;28;20548;-54
2023/08/06 10:52:45;;;;;;;9.10;8.20;;;17.70;99.90;;;;;;5065197;28;20567;-54
2023/08/06 10:55:11;;;;;;;9.73;8.73;;;17.70;99.90;;;;;;5065303;28;20512;-54
2023/08/06 10:57:38;;;;;;;9.50;8.60;;;17.80;99.90;;;;;;5066749;28;20579;-53
2023/08/06 11:00:06;;;;;;;9.20;8.50;;;17.70;99.90;;;;;;5072671;28;20480;-54
2023/08/06 11:02:36;;;;;;;10.10;8.97;;;17.60;99.90;;;;;;5068441;28;20453;-53
2023/08/06 11:05:07;;;;;;;9.10;8.40;;;17.60;99.90;;;;;;5066800;28;20504;-55
2023/08/06 11:07:34;;;;;;;9.10;8.20;;;17.60;99.90;;;;;;5062600;28;20645;-53
2023/08/06 11:10:05;;;;;;;8.93;8.13;;;17.70;99.90;;;;;;5071837;28;20548;-53
2023/08/06 11:12:32;;;;;;;7.83;7.10;;;17.60;99.90;;;;;;5068620;28;20552;-52
2023/08/06 11:14:58;;;;;;;9.77;8.67;;;17.60;99.90;;;;;;5063798;28;20460;-54
2023/08/06 11:17:25;;;;;;;9.20;8.20;;;17.50;99.90;;;;;;5068164;28;20559;-53
2023/08/06 11:19:54;;;;;;;10.17;8.97;;;17.50;99.90;;;;;;5068516;28;20797;-51
2023/08/06 11:22:22;;;;;;;12.20;8.60;;;17.50;99.90;;;;;;5069284;28;20529;-52
2023/08/06 11:24:48;;;;;;;8.83;8.03;;;17.60;99.90;;;;;;5068135;28;20465;-52
2023/08/06 11:27:16;;;;;;;8.73;7.83;;;17.60;99.90;;;;;;5070031;28;20568;-53
2023/08/06 11:29:42;;;;;;;8.27;7.57;;;17.70;99.90;;;;;;5068050;28;20468;-51
2023/08/06 11:32:09;;;;;;;9.40;8.60;;;17.60;99.90;;;;;;5065873;28;20569;-53
2023/08/06 11:34:36;;;;;;;10.70;9.60;;;17.70;99.90;;;;;;5064275;28;20564;-53
2023/08/06 11:37:06;;;;;;;8.70;7.90;;;17.70;99.90;;;;;;5069631;28;20488;-53
2023/08/06 11:39:33;;;;;;;9.83;8.73;;;17.70;99.90;;;;;;5063098;28;20540;-53
2023/08/06 11:42:02;;;;;;;10.13;8.57;;;17.70;99.90;;;;;;5066980;28;20542;-51
2023/08/06 11:44:31;;;;;;;12.23;9.47;;;17.70;99.90;;;;;;5069307;28;20469;-52
2023/08/06 11:46:59;;;;;;;10.03;9.13;;;17.70;99.90;;;;;;5070042;28;20569;-52
2023/08/06 11:49:44;;;;;;;10.40;9.40;;;17.70;99.90;;;;;;5061799;28;20491;-51
2023/08/06 11:52:20;;;;;;;9.60;8.77;;;17.70;99.90;;;;;;5063921;28;20482;-52
2023/08/06 11:54:47;;;;;;;8.57;7.87;;;17.70;99.90;;;;;;5065081;28;20625;-51
2023/08/06 11:57:15;;;;;;;10.30;9.30;;;17.70;99.90;;;;;;5060147;28;20584;-51
2023/08/06 11:59:42;;;;;;;9.33;8.43;;;17.70;99.90;;;;;;5066476;28;20555;-52
2023/08/06 12:02:11;;;;;;;9.67;8.80;;;17.70;99.90;;;;;;5069337;28;20544;-52
2023/08/06 12:04:59;;;;;;;10.50;8.97;;;17.70;99.90;;;;;;5066674;28;20461;-51
2023/08/06 12:07:30;;;;;;;9.20;8.30;;;17.70;99.90;;;;;;5064804;28;20495;-52
2023/08/06 12:09:57;;;;;;;9.53;8.57;;;17.80;99.90;;;;;;5069349;28;20465;-53
2023/08/06 12:12:24;;;;;;;8.67;7.87;;;17.80;99.90;;;;;;5069103;28;20569;-50
2023/08/06 12:14:51;;;;;;;9.97;8.43;;;17.70;99.90;;;;;;5066633;28;20461;-51
2023/08/06 12:17:18;;;;;;;8.63;7.80;;;17.70;99.90;;;;;;5070344;28;20517;-52
2023/08/06 12:19:46;;;;;;;9.57;8.60;;;17.70;99.90;;;;;;5068551;28;20553;-52
2023/08/06 12:22:14;;;;;;;12.57;9.10;;;17.80;99.90;;;;;;5069766;28;20478;-52
2023/08/06 12:24:42;;;;;;;8.83;7.93;;;17.80;99.90;;;;;;5068669;28;20835;-52
2023/08/06 12:27:08;;;;;;;9.87;8.97;;;17.90;99.90;;;;;;5066645;28;20575;-51
2023/08/06 12:29:35;;;;;;;10.40;8.80;;;17.90;99.90;;;;;;5066103;28;20555;-53
2023/08/06 12:32:02;;;;;;;8.90;8.03;;;17.80;99.90;;;;;;5068074;28;20453;-54
2023/08/06 12:34:28;;;;;;;9.23;8.33;;;17.80;99.90;;;;;;5066727;28;20568;-54
2023/08/06 12:36:55;;;;;;;13.27;8.80;;;17.80;99.90;;;;;;5069240;28;20567;-54
2023/08/06 12:39:21;;;;;;;10.20;9.13;;;17.80;99.90;;;;;;5067422;28;20528;-53
2023/08/06 12:41:49;;;;;;;10.50;8.27;;;17.80;99.90;;;;;;5066138;28;21031;-54